Time;durP1;ratioP1;P1;durP2;ratioP2;P2;SDS_P1;SDS_P2;PMS_P1;PMS_P2;Temp;Humidity;BMP_temperature;BMP_pressure;BME280_temperature;BME280_humidity;BME280_pressure;Samples;Min_cycle;Max_cycle;Signal;HPM_P1;HPM_P2
2023/10/17 00:00:46;;;;;;;7.65;4.13;;;7.90;99.90;;;;;;5073573;28;20108;-55
2023/10/17 00:03:14;;;;;;;8.00;4.13;;;7.80;99.90;;;;;;5073486;28;20109;-53
2023/10/17 00:05:41;;;;;;;12.00;4.90;;;7.80;99.90;;;;;;5074080;28;20493;-54
2023/10/17 00:08:09;;;;;;;10.50;4.70;;;7.80;99.90;;;;;;5073865;28;20040;-55
2023/10/17 00:10:43;;;;;;;11.93;4.60;;;7.70;99.90;;;;;;5073811;28;20056;-52
2023/10/17 00:13:31;;;;;;;11.47;5.30;;;7.70;99.90;;;;;;5073379;28;20028;-55
2023/10/17 00:15:58;;;;;;;8.63;4.33;;;7.70;99.90;;;;;;5055021;28;20033;-52
2023/10/17 00:18:25;;;;;;;10.23;4.60;;;7.70;99.90;;;;;;5073552;28;20063;-55
2023/10/17 00:21:04;;;;;;;9.83;4.40;;;7.70;99.90;;;;;;5073421;28;20032;-54
2023/10/17 00:23:32;;;;;;;10.10;4.43;;;7.70;99.90;;;;;;5073245;28;20028;-54
2023/10/17 00:26:04;;;;;;;8.33;4.17;;;7.70;99.90;;;;;;5055833;28;20123;-55
2023/10/17 00:28:30;;;;;;;8.57;3.97;;;7.70;99.90;;;;;;5073006;28;20040;-53
2023/10/17 00:30:55;;;;;;;10.47;3.90;;;7.70;99.90;;;;;;5055307;28;20496;-52
2023/10/17 00:33:23;;;;;;;9.60;4.27;;;7.60;99.90;;;;;;5055309;28;20048;-54
2023/10/17 00:35:50;;;;;;;8.68;3.97;;;7.60;99.90;;;;;;5055445;28;20039;-55
2023/10/17 00:38:16;;;;;;;6.70;4.23;;;7.50;99.90;;;;;;5055602;28;20036;-53
2023/10/17 00:40:47;;;;;;;9.47;4.60;;;7.50;99.90;;;;;;5073364;28;20040;-54
2023/10/17 00:43:13;;;;;;;10.03;4.43;;;7.50;99.90;;;;;;5055078;28;20028;-54
2023/10/17 00:45:40;;;;;;;14.63;4.60;;;7.40;99.90;;;;;;5074026;28;20033;-54
2023/10/17 00:48:17;;;;;;;9.43;4.83;;;7.40;99.90;;;;;;5055235;28;20036;-55
2023/10/17 00:50:45;;;;;;;10.13;4.97;;;7.30;99.90;;;;;;5073173;28;20115;-55
2023/10/17 00:53:11;;;;;;;8.60;4.07;;;7.30;99.90;;;;;;5055132;28;20510;-54
2023/10/17 00:55:38;;;;;;;7.47;4.40;;;7.30;99.90;;;;;;5054925;28;20064;-54
2023/10/17 00:58:06;;;;;;;8.03;4.13;;;7.30;99.90;;;;;;5054851;28;20330;-52
2023/10/17 01:00:40;;;;;;;9.13;4.07;;;7.40;99.90;;;;;;5055199;28;20254;-55
2023/10/17 01:03:10;;;;;;;7.47;3.50;;;7.40;99.90;;;;;;5054954;28;20463;-55
2023/10/17 01:06:13;;;;;;;9.87;4.20;;;7.40;99.90;;;;;;5055045;28;20154;-54
2023/10/17 01:08:40;;;;;;;6.33;3.03;;;7.40;99.90;;;;;;5072879;28;20170;-54
2023/10/17 01:11:16;;;;;;;7.10;3.90;;;7.40;99.90;;;;;;5055253;28;20544;-54
2023/10/17 01:13:42;;;;;;;6.57;3.40;;;7.40;99.90;;;;;;5055013;28;20036;-54
2023/10/17 01:16:10;;;;;;;8.13;3.53;;;7.50;99.90;;;;;;5055487;28;20043;-56
2023/10/17 01:18:36;;;;;;;8.67;3.73;;;7.50;99.90;;;;;;5055363;28;20465;-54
2023/10/17 01:21:04;;;;;;;7.93;3.73;;;7.50;99.90;;;;;;5072895;28;20033;-53
2023/10/17 01:23:31;;;;;;;7.40;3.60;;;7.50;99.90;;;;;;5073110;28;20052;-53
2023/10/17 01:25:57;;;;;;;8.93;4.20;;;7.50;99.90;;;;;;5073555;28;20036;-55
2023/10/17 01:28:22;;;;;;;8.33;3.87;;;7.50;99.90;;;;;;5058770;28;20040;-52
2023/10/17 01:30:52;;;;;;;7.83;3.90;;;7.40;99.90;;;;;;5058495;28;20075;-55
2023/10/17 01:33:18;;;;;;;7.27;4.60;;;7.40;99.90;;;;;;5076602;28;20489;-56
2023/10/17 01:35:44;;;;;;;7.60;4.27;;;7.40;99.90;;;;;;5059200;28;20048;-53
2023/10/17 01:38:10;;;;;;;8.63;4.60;;;7.30;99.90;;;;;;5076880;28;20111;-52
2023/10/17 01:40:36;;;;;;;7.87;4.07;;;7.30;99.90;;;;;;5058663;28;20052;-52
2023/10/17 01:43:02;;;;;;;8.73;4.30;;;7.30;99.90;;;;;;5076364;28;20036;-54
2023/10/17 01:45:29;;;;;;;8.03;4.10;;;7.20;99.90;;;;;;5058983;28;20028;-54
2023/10/17 01:47:55;;;;;;;9.50;4.13;;;7.20;99.90;;;;;;5059021;28;20029;-54
2023/10/17 01:50:24;;;;;;;11.17;4.63;;;7.20;99.90;;;;;;5076448;28;20112;-51
2023/10/17 01:52:53;;;;;;;7.80;4.00;;;7.20;99.90;;;;;;5058780;28;20035;-51
2023/10/17 01:55:24;;;;;;;9.57;3.83;;;7.20;99.90;;;;;;5058633;28;20111;-53
2023/10/17 01:57:54;;;;;;;8.43;4.10;;;7.20;99.90;;;;;;5058951;28;20029;-54
2023/10/17 02:02:58;;;;;;;7.77;3.97;;;7.20;99.90;;;;;;5076819;28;20433;-55
2023/10/17 02:05:24;;;;;;;6.93;3.87;;;7.20;99.90;;;;;;5058689;28;20115;-53
2023/10/17 02:07:50;;;;;;;8.20;4.20;;;7.20;99.90;;;;;;5058655;28;20032;-54
2023/10/17 02:10:21;;;;;;;9.20;3.57;;;7.20;99.90;;;;;;5058749;28;20029;-55
2023/10/17 02:12:48;;;;;;;9.37;4.13;;;7.20;99.90;;;;;;5076872;28;20082;-55
2023/10/17 02:15:19;;;;;;;8.23;3.90;;;7.30;99.90;;;;;;5058293;28;20036;-55
2023/10/17 02:17:48;;;;;;;7.80;3.67;;;7.20;99.90;;;;;;5076391;28;20378;-55
2023/10/17 02:22:52;;;;;;;8.73;3.33;;;7.30;99.90;;;;;;5058235;28;20077;-55
2023/10/17 02:25:21;;;;;;;7.80;3.63;;;7.30;99.90;;;;;;5075836;28;20036;-55
2023/10/17 02:27:50;;;;;;;7.18;3.58;;;7.30;99.90;;;;;;5058062;28;20149;-55
2023/10/17 02:30:20;;;;;;;9.02;3.22;;;7.30;99.90;;;;;;5058244;28;20024;-55
2023/10/17 02:32:55;;;;;;;7.03;3.20;;;7.30;99.90;;;;;;5058198;28;20123;-55
2023/10/17 02:35:28;;;;;;;8.57;3.60;;;7.30;99.90;;;;;;5041748;28;20044;-55
2023/10/17 02:37:59;;;;;;;7.53;3.23;;;7.20;99.90;;;;;;5056755;28;20111;-55
2023/10/17 02:40:25;;;;;;;7.67;3.77;;;7.20;99.90;;;;;;5057716;28;20496;-53
2023/10/17 02:42:51;;;;;;;7.53;3.87;;;7.20;99.90;;;;;;5075880;28;20025;-56
2023/10/17 02:45:25;;;;;;;8.80;3.73;;;7.10;99.90;;;;;;5057209;28;20037;-55
2023/10/17 02:47:56;;;;;;;7.23;3.73;;;7.20;99.90;;;;;;5075504;28;20051;-55
2023/10/17 02:52:57;;;;;;;7.83;3.93;;;7.20;99.90;;;;;;5075639;28;20028;-54
2023/10/17 02:55:23;;;;;;;9.17;3.63;;;7.10;99.90;;;;;;5057236;28;20037;-55
2023/10/17 02:57:53;;;;;;;7.67;4.00;;;7.10;99.90;;;;;;5057391;28;20124;-55
2023/10/17 03:00:22;;;;;;;;;;;7.10;99.90;;;;;;5075834;28;20027;-52
2023/10/17 03:02:58;;;;;;;6.80;3.72;;;7.10;99.90;;;;;;5057495;28;19962;-54
2023/10/17 03:05:25;;;;;;;9.77;3.77;;;7.00;99.90;;;;;;5057670;28;20105;-55
2023/10/17 03:07:51;;;;;;;8.07;3.67;;;7.10;99.90;;;;;;5075535;28;20028;-53
2023/10/17 03:10:37;;;;;;;11.17;4.10;;;7.10;99.90;;;;;;5075385;28;20116;-55
2023/10/17 03:13:22;;;;;;;7.33;3.33;;;7.10;99.90;;;;;;5075003;28;20035;-55
2023/10/17 03:15:57;;;;;;;10.30;3.87;;;7.10;99.90;;;;;;5074899;28;20028;-55
2023/10/17 03:18:24;;;;;;;8.67;3.70;;;7.10;99.90;;;;;;5056841;28;20028;-55
2023/10/17 03:20:52;;;;;;;10.10;4.40;;;7.10;99.90;;;;;;5074811;28;20028;-51
2023/10/17 03:23:28;;;;;;;7.20;3.73;;;7.10;99.90;;;;;;5056812;28;20045;-52
2023/10/17 03:26:03;;;;;;;7.57;3.67;;;7.10;99.90;;;;;;5056285;28;20074;-55
2023/10/17 03:28:33;;;;;;;7.20;3.60;;;7.10;99.90;;;;;;5056636;28;20068;-54
2023/10/17 03:30:59;;;;;;;7.00;3.63;;;7.10;99.90;;;;;;5057078;28;20170;-52
2023/10/17 03:33:28;;;;;;;5.17;3.40;;;7.10;99.90;;;;;;5056896;28;20111;-54
2023/10/17 03:38:27;;;;;;;5.97;3.57;;;7.10;99.90;;;;;;5074383;28;20456;-52
2023/10/17 03:41:02;;;;;;;6.33;3.57;;;7.10;99.90;;;;;;5074870;28;20032;-55
2023/10/17 03:43:29;;;;;;;7.37;3.40;;;7.10;99.90;;;;;;5074546;28;20029;-54
2023/10/17 03:46:01;;;;;;;7.23;3.30;;;7.10;99.90;;;;;;5074313;28;20036;-55
2023/10/17 03:48:32;;;;;;;8.47;3.67;;;7.10;99.90;;;;;;5074257;28;20041;-54
2023/10/17 03:53:36;;;;;;;6.60;3.77;;;7.10;99.90;;;;;;5073991;28;20039;-53
2023/10/17 03:56:03;;;;;;;8.13;3.85;;;7.10;99.90;;;;;;5074805;28;20036;-53
2023/10/17 04:00:58;;;;;;;9.07;4.27;;;7.10;99.90;;;;;;5074266;28;20028;-55
2023/10/17 04:03:30;;;;;;;7.87;4.20;;;7.10;99.90;;;;;;5073639;28;20032;-52
2023/10/17 04:08:37;;;;;;;9.67;4.80;;;7.00;99.90;;;;;;5073868;28;20024;-54
2023/10/17 04:11:18;;;;;;;10.83;4.87;;;7.00;99.90;;;;;;5070845;28;20628;-53
2023/10/17 04:13:48;;;;;;;13.03;6.23;;;7.00;99.90;;;;;;5070630;28;20041;-53
2023/10/17 04:16:21;;;;;;;10.70;5.33;;;7.00;99.90;;;;;;5070605;28;20036;-55
2023/10/17 04:18:48;;;;;;;11.30;5.20;;;7.10;99.90;;;;;;5061095;28;20047;-50
2023/10/17 04:21:27;;;;;;;11.20;5.30;;;7.10;99.90;;;;;;5050922;28;20099;-52
2023/10/17 04:23:55;;;;;;;10.48;5.10;;;7.10;99.90;;;;;;5032411;28;20033;-54
2023/10/17 04:26:34;;;;;;;11.87;5.53;;;7.10;99.90;;;;;;5050274;28;20035;-52
2023/10/17 04:29:10;;;;;;;9.10;5.40;;;7.10;99.90;;;;;;5050115;28;20437;-51
2023/10/17 04:31:37;;;;;;;10.70;5.23;;;7.10;99.90;;;;;;5050066;28;20037;-54
2023/10/17 04:34:06;;;;;;;13.53;5.90;;;7.10;99.90;;;;;;5049944;28;20606;-51
2023/10/17 04:36:38;;;;;;;10.27;5.50;;;7.10;99.90;;;;;;5050128;28;20029;-53
2023/10/17 04:39:18;;;;;;;9.17;4.53;;;7.10;99.90;;;;;;5049926;28;20048;-52
2023/10/17 04:44:18;;;;;;;11.70;6.03;;;7.10;99.90;;;;;;5050174;28;20033;-54
2023/10/17 04:47:16;;;;;;;12.53;5.83;;;7.10;99.90;;;;;;5050008;28;20041;-54
2023/10/17 04:49:39;;;;;;;14.00;5.70;;;7.00;99.90;;;;;;5049193;28;20116;-53
2023/10/17 04:54:41;;;;;;;12.43;7.23;;;7.00;99.90;;;;;;5049595;28;20060;-52
2023/10/17 04:57:09;;;;;;;19.50;8.43;;;7.00;99.90;;;;;;5049748;28;20130;-52
2023/10/17 06:18:52;;;;;;;32.97;16.47;;;6.80;99.90;;;;;;5034529;28;20361;-54
2023/10/17 06:21:19;;;;;;;32.73;17.73;;;6.80;99.90;;;;;;5034262;28;20053;-55
2023/10/17 06:34:20;;;;;;;39.40;21.23;;;6.80;99.90;;;;;;5033388;28;20598;-54
2023/10/17 06:36:59;;;;;;;41.87;22.00;;;6.80;99.90;;;;;;5017075;28;20217;-55
2023/10/17 06:39:26;;;;;;;39.28;22.23;;;6.80;99.90;;;;;;5034445;28;20120;-52
2023/10/17 06:41:56;;;;;;;40.33;21.17;;;6.80;99.90;;;;;;5034491;28;20040;-55
2023/10/17 06:44:22;;;;;;;39.40;20.47;;;6.80;99.90;;;;;;5034290;28;20041;-54
2023/10/17 06:47:08;;;;;;;34.13;18.67;;;6.80;99.90;;;;;;5034225;28;20033;-55
2023/10/17 06:54:43;;;;;;;26.88;15.35;;;6.90;99.90;;;;;;5034062;28;20040;-53
2023/10/17 06:57:35;;;;;;;41.07;18.47;;;6.90;99.90;;;;;;5033687;28;20317;-55
2023/10/17 07:00:15;;;;;;;29.55;15.38;;;6.90;99.90;;;;;;5033216;28;20037;-52
2023/10/17 07:02:43;;;;;;;28.13;15.73;;;7.00;99.90;;;;;;5034069;28;20458;-55
2023/10/17 07:05:09;;;;;;;29.27;16.27;;;7.00;99.90;;;;;;5033174;28;20030;-55
2023/10/17 07:07:45;;;;;;;30.40;13.57;;;7.00;99.90;;;;;;5033951;28;20080;-55
2023/10/17 07:10:18;;;;;;;25.20;13.43;;;7.00;99.90;;;;;;5033597;28;20128;-53
2023/10/17 07:12:50;;;;;;;29.33;13.80;;;7.10;99.90;;;;;;5033376;28;20094;-54
2023/10/17 07:15:19;;;;;;;24.87;11.97;;;7.10;99.90;;;;;;5033250;28;20402;-54
2023/10/17 07:23:19;;;;;;;21.93;10.20;;;7.10;99.90;;;;;;5032825;28;20034;-55
2023/10/17 07:25:49;;;;;;;18.83;9.77;;;7.20;99.90;;;;;;5033346;28;20033;-55
2023/10/17 07:28:15;;;;;;;15.43;9.67;;;7.20;99.90;;;;;;5033028;28;20402;-50
2023/10/17 07:30:49;;;;;;;17.07;8.40;;;7.20;99.90;;;;;;5033477;28;20039;-52
2023/10/17 07:33:18;;;;;;;13.83;7.10;;;7.20;99.90;;;;;;5041905;28;20386;-54
2023/10/17 07:35:44;;;;;;;11.63;6.00;;;7.40;99.90;;;;;;5043779;28;20091;-52
2023/10/17 07:38:13;;;;;;;10.90;5.23;;;7.50;99.90;;;;;;5043884;28;20065;-53
2023/10/17 07:43:07;;;;;;;9.37;4.40;;;7.50;99.90;;;;;;5042121;28;20033;-54
2023/10/17 07:45:39;;;;;;;8.13;4.30;;;7.60;99.90;;;;;;5033625;28;20038;-52
2023/10/17 07:48:20;;;;;;;8.20;3.80;;;7.60;99.90;;;;;;5015224;28;20091;-55
2023/10/17 07:50:50;;;;;;;7.73;4.00;;;7.70;99.90;;;;;;5032697;28;20041;-54
2023/10/17 07:53:19;;;;;;;5.50;3.13;;;7.70;99.90;;;;;;5033607;28;20025;-52
2023/10/17 07:55:52;;;;;;;5.65;3.40;;;7.70;99.90;;;;;;5033573;28;20029;-60
2023/10/17 07:58:39;;;;;;;7.07;3.23;;;7.80;99.90;;;;;;5033218;28;20036;-55
2023/10/17 08:01:08;;;;;;;6.83;3.03;;;7.80;99.90;;;;;;5032857;28;20445;-55
2023/10/17 08:03:57;;;;;;;4.57;2.50;;;7.90;99.90;;;;;;5033102;28;20044;-55
2023/10/17 08:06:22;;;;;;;7.80;3.50;;;7.90;99.90;;;;;;5033188;28;20776;-54
2023/10/17 08:08:49;;;;;;;7.80;3.60;;;7.90;99.90;;;;;;5032810;28;20052;-55
2023/10/17 08:11:28;;;;;;;6.63;3.53;;;7.90;99.90;;;;;;5032950;28;20068;-53
2023/10/17 08:13:57;;;;;;;7.43;3.43;;;7.90;99.90;;;;;;5032741;28;20040;-55
2023/10/17 08:16:24;;;;;;;5.90;3.40;;;8.00;99.90;;;;;;5033327;28;20032;-55
2023/10/17 08:18:58;;;;;;;6.23;3.00;;;7.90;99.90;;;;;;5032811;28;20044;-50
2023/10/17 08:21:33;;;;;;;7.97;3.07;;;7.90;99.90;;;;;;5033337;28;20076;-54
2023/10/17 08:24:00;;;;;;;6.80;3.60;;;8.00;99.90;;;;;;5032390;28;20076;-55
2023/10/17 08:26:29;;;;;;;10.43;4.20;;;8.00;99.90;;;;;;5033285;28;20047;-51
2023/10/17 08:28:56;;;;;;;7.78;3.85;;;8.00;99.90;;;;;;5032505;28;20034;-55
2023/10/17 08:31:44;;;;;;;9.83;4.10;;;7.90;99.90;;;;;;5032934;28;20071;-54
2023/10/17 08:34:12;;;;;;;7.23;3.80;;;7.90;99.90;;;;;;5032769;28;20033;-53
2023/10/17 08:42:05;;;;;;;11.70;4.27;;;8.20;99.90;;;;;;5032860;28;20061;-54
2023/10/17 08:44:34;;;;;;;8.20;3.83;;;8.20;99.90;;;;;;5032596;28;20091;-55
2023/10/17 08:47:01;;;;;;;8.63;4.15;;;8.30;99.90;;;;;;5032212;28;20437;-55
2023/10/17 08:49:28;;;;;;;9.60;4.83;;;8.40;99.90;;;;;;5032358;28;20545;-56
2023/10/17 08:51:57;;;;;;;9.40;5.17;;;8.50;99.90;;;;;;5032494;28;20068;-54
2023/10/17 08:54:29;;;;;;;8.70;4.17;;;8.60;99.90;;;;;;5032089;28;20120;-53
2023/10/17 08:57:01;;;;;;;5.97;4.10;;;8.80;99.90;;;;;;5034745;28;20371;-54
2023/10/17 09:00:22;;;;;;;6.57;3.40;;;8.90;99.90;;;;;;5036358;28;20025;-49
2023/10/17 09:04:44;;;;;;;6.37;3.70;;;9.30;99.90;;;;;;5018191;28;20405;-53
2023/10/17 09:07:18;;;;;;;5.93;3.13;;;9.40;99.90;;;;;;5036219;28;20033;-53
2023/10/17 09:09:47;;;;;;;5.47;3.10;;;9.60;99.90;;;;;;5035674;28;20116;-54
2023/10/17 09:12:19;;;;;;;6.47;3.70;;;9.80;99.90;;;;;;5036364;28;20397;-52
2023/10/17 09:14:49;;;;;;;6.87;3.27;;;10.00;99.90;;;;;;5035611;28;20030;-53
2023/10/17 09:19:51;;;;;;;8.37;3.53;;;10.40;99.90;;;;;;5035650;28;20040;-54
2023/10/17 09:22:40;;;;;;;5.57;2.97;;;10.60;99.90;;;;;;5035767;28;20035;-54
2023/10/17 09:25:18;;;;;;;8.43;3.30;;;10.90;99.90;;;;;;5035479;28;20037;-54
2023/10/17 09:27:49;;;;;;;6.25;3.40;;;11.20;99.90;;;;;;5034643;28;20264;-55
2023/10/17 09:30:17;;;;;;;5.87;3.27;;;11.40;99.90;;;;;;5034847;28;20120;-54
2023/10/17 09:32:44;;;;;;;5.73;2.90;;;11.60;99.90;;;;;;5034862;28;20031;-53
2023/10/17 09:35:13;;;;;;;5.00;2.30;;;12.00;99.90;;;;;;5034586;28;20478;-52
2023/10/17 09:37:41;;;;;;;6.63;2.75;;;12.90;99.90;;;;;;5035162;28;20030;-53
2023/10/17 09:40:14;;;;;;;2.90;2.00;;;14.30;99.90;;;;;;5035429;28;20114;-55
2023/10/17 09:42:47;;;;;;;4.55;2.78;;;15.90;99.90;;;;;;5036021;28;20033;-54
2023/10/17 09:45:14;;;;;;;4.93;2.22;;;17.50;99.90;;;;;;5035304;28;20155;-54
2023/10/17 09:47:44;;;;;;;3.47;2.22;;;18.90;96.80;;;;;;5035429;28;20033;-53
2023/10/17 09:50:13;;;;;;;5.05;2.35;;;19.90;95.50;;;;;;5035379;28;20029;-55
2023/10/17 09:52:40;;;;;;;3.40;2.00;;;20.60;94.10;;;;;;5035760;28;20112;-52
2023/10/17 09:55:09;;;;;;;5.40;2.30;;;21.30;93.00;;;;;;5035246;28;20083;-53
2023/10/17 09:57:39;;;;;;;3.75;1.70;;;22.60;88.50;;;;;;5035120;28;20026;-54
2023/10/17 10:00:27;;;;;;;3.70;2.13;;;23.40;83.70;;;;;;5034955;28;20025;-55
2023/10/17 10:02:54;;;;;;;4.20;1.70;;;23.10;81.90;;;;;;5035427;28;20029;-53
2023/10/17 10:05:25;;;;;;;3.95;1.90;;;23.10;80.00;;;;;;5035017;28;20565;-54
2023/10/17 10:07:54;;;;;;;2.55;1.55;;;22.60;80.00;;;;;;5035287;28;20410;-49
2023/10/17 10:10:41;;;;;;;4.72;1.75;;;21.30;82.30;;;;;;5034905;28;20033;-53
2023/10/17 10:13:12;;;;;;;3.53;1.60;;;20.60;83.10;;;;;;5035224;28;20053;-53
2023/10/17 10:16:03;;;;;;;3.25;1.67;;;19.60;85.50;;;;;;5017203;28;20104;-53
2023/10/17 10:18:35;;;;;;;3.92;1.42;;;18.80;90.00;;;;;;5034791;28;20044;-53
2023/10/17 10:21:04;;;;;;;3.45;1.58;;;18.00;90.30;;;;;;5035254;28;20486;-54
2023/10/17 10:23:29;;;;;;;;;;;17.60;91.30;;;;;;5035841;28;20037;-52
2023/10/17 10:26:10;;;;;;;3.17;1.50;;;17.40;92.00;;;;;;5034576;28;19909;-54
2023/10/17 10:28:37;;;;;;;3.67;1.70;;;16.80;92.70;;;;;;5034254;28;20029;-54
2023/10/17 10:31:29;;;;;;;3.55;1.60;;;16.60;93.40;;;;;;5034560;28;20033;-53
2023/10/17 10:33:57;;;;;;;2.47;1.42;;;16.30;93.70;;;;;;5034164;28;20025;-50
2023/10/17 10:36:24;;;;;;;2.65;1.20;;;16.00;95.20;;;;;;5016525;28;20025;-55
2023/10/17 10:38:53;;;;;;;3.10;1.27;;;15.80;95.70;;;;;;5016160;28;20033;-50
2023/10/17 10:41:19;;;;;;;3.10;1.55;;;15.80;94.40;;;;;;5033691;28;20041;-52
2023/10/17 10:43:47;;;;;;;2.80;1.50;;;15.50;94.80;;;;;;5033266;28;20040;-52
2023/10/17 10:46:14;;;;;;;3.25;1.42;;;15.10;96.10;;;;;;5033444;28;20033;-55
2023/10/17 10:48:47;;;;;;;3.20;1.30;;;14.90;96.80;;;;;;5033663;28;20029;-52
2023/10/17 10:51:16;;;;;;;4.30;1.80;;;14.80;96.60;;;;;;5033377;28;20037;-54
2023/10/17 10:53:44;;;;;;;2.85;1.20;;;14.60;97.10;;;;;;5033293;28;20064;-52
2023/10/17 10:56:11;;;;;;;2.63;1.15;;;14.40;96.90;;;;;;5033504;28;20509;-51
2023/10/17 10:58:48;;;;;;;5.15;0.90;;;14.50;97.00;;;;;;5032977;28;20157;-51
2023/10/17 11:01:14;;;;;;;3.10;0.90;;;14.50;96.60;;;;;;5033325;28;20033;-53
2023/10/17 11:03:46;;;;;;;2.63;0.93;;;14.40;97.60;;;;;;5032823;28;20061;-53
2023/10/17 11:06:13;;;;;;;4.00;1.10;;;14.30;96.90;;;;;;5015321;28;20324;-53
2023/10/17 11:08:39;;;;;;;4.43;1.33;;;14.20;97.50;;;;;;5033015;28;20041;-55
2023/10/17 11:11:05;;;;;;;1.98;0.80;;;14.20;98.50;;;;;;5032685;28;20172;-52
2023/10/17 11:13:40;;;;;;;2.05;0.80;;;14.20;99.00;;;;;;5032839;28;20026;-55
2023/10/17 11:16:06;;;;;;;2.85;1.08;;;14.20;97.50;;;;;;5032836;28;20029;-55
2023/10/17 11:18:43;;;;;;;2.03;1.00;;;14.50;97.60;;;;;;5032562;28;20394;-54
2023/10/17 11:21:09;;;;;;;1.90;0.90;;;14.60;96.30;;;;;;5033073;28;20433;-55
2023/10/17 11:23:40;;;;;;;1.35;0.82;;;14.50;96.00;;;;;;5015052;28;20039;-51
2023/10/17 11:26:12;;;;;;;2.53;0.90;;;14.60;95.80;;;;;;5033175;28;20030;-54
2023/10/17 11:28:42;;;;;;;2.22;0.70;;;14.50;95.40;;;;;;5032462;28;20037;-54
2023/10/17 11:31:21;;;;;;;3.15;1.00;;;14.30;96.90;;;;;;5032688;28;20041;-54
2023/10/17 11:33:59;;;;;;;;;;;14.40;96.90;;;;;;5033008;28;20029;-55
2023/10/17 11:36:35;;;;;;;1.83;0.80;;;14.60;97.40;;;;;;5014862;28;19909;-55
2023/10/17 11:39:05;;;;;;;1.85;0.82;;;14.90;96.50;;;;;;5032478;28;20045;-55
2023/10/17 11:41:38;;;;;;;3.55;0.98;;;15.20;97.90;;;;;;5032762;28;20034;-52
2023/10/17 11:44:09;;;;;;;2.53;1.02;;;15.60;95.60;;;;;;5032982;28;20061;-53
2023/10/17 11:46:35;;;;;;;3.70;1.38;;;16.00;95.50;;;;;;5033140;28;20033;-55
2023/10/17 11:49:26;;;;;;;1.88;1.25;;;16.60;94.50;;;;;;5033138;28;20480;-52
2023/10/17 11:52:02;;;;;;;3.38;1.27;;;16.90;94.50;;;;;;5033026;28;20053;-52
2023/10/17 11:54:29;;;;;;;2.05;1.10;;;17.20;92.90;;;;;;5032429;28;20029;-55
2023/10/17 11:56:55;;;;;;;2.50;0.90;;;17.30;92.00;;;;;;5032905;28;20084;-55
2023/10/17 11:59:21;;;;;;;3.75;1.50;;;17.70;92.70;;;;;;5033085;28;20482;-53
2023/10/17 12:01:52;;;;;;;4.65;1.52;;;17.60;92.60;;;;;;5033161;28;20034;-53
2023/10/17 12:04:19;;;;;;;2.65;1.48;;;17.30;92.60;;;;;;5032849;28;20096;-54
2023/10/17 12:06:48;;;;;;;2.90;1.35;;;16.80;94.10;;;;;;5032841;28;20060;-53
2023/10/17 12:09:22;;;;;;;4.55;1.30;;;16.80;93.80;;;;;;5032311;28;20120;-54
2023/10/17 12:11:50;;;;;;;3.83;1.67;;;16.90;94.10;;;;;;5032791;28;20548;-52
2023/10/17 12:14:23;;;;;;;3.55;1.40;;;16.70;94.10;;;;;;5032442;28;20030;-53
2023/10/17 12:16:58;;;;;;;5.97;1.60;;;16.60;94.20;;;;;;5032456;28;20037;-53
2023/10/17 12:19:28;;;;;;;3.33;1.58;;;16.50;95.10;;;;;;5032478;28;20470;-53
2023/10/17 12:21:55;;;;;;;3.83;1.90;;;16.40;95.50;;;;;;5032172;28;20037;-52
2023/10/17 12:24:28;;;;;;;3.55;1.70;;;16.30;95.20;;;;;;5031946;28;20037;-54
2023/10/17 12:26:55;;;;;;;3.13;2.10;;;16.10;96.10;;;;;;5031973;28;20036;-51
2023/10/17 12:29:25;;;;;;;4.03;1.80;;;16.30;95.60;;;;;;5014282;28;20512;-56
2023/10/17 12:31:53;;;;;;;4.45;2.00;;;16.50;95.40;;;;;;5033849;28;20039;-55
2023/10/17 12:34:19;;;;;;;3.55;2.00;;;16.40;95.40;;;;;;5035898;28;20034;-55
2023/10/17 12:36:46;;;;;;;3.72;1.85;;;16.50;95.20;;;;;;5036322;28;20029;-56
2023/10/17 12:39:14;;;;;;;4.53;2.10;;;16.20;95.40;;;;;;5035670;28;20185;-51
2023/10/17 12:41:40;;;;;;;5.35;1.70;;;16.00;95.80;;;;;;5036073;28;20390;-51
2023/10/17 12:44:06;;;;;;;4.55;2.08;;;15.80;96.70;;;;;;5035422;28;20037;-53
2023/10/17 12:46:31;;;;;;;2.65;1.90;;;15.60;96.60;;;;;;5036200;28;20025;-54
2023/10/17 12:48:57;;;;;;;2.33;1.40;;;15.60;96.40;;;;;;5017954;28;20536;-55
2023/10/17 12:51:23;;;;;;;3.25;1.75;;;15.50;96.80;;;;;;5035649;28;20444;-54
2023/10/17 12:53:51;;;;;;;3.92;1.75;;;15.60;98.00;;;;;;5035595;28;20091;-52
2023/10/17 12:56:20;;;;;;;5.32;2.03;;;16.00;96.70;;;;;;5018176;28;20044;-54
2023/10/17 12:58:46;;;;;;;;;;;16.30;96.70;;;;;;5036274;28;20057;-54
2023/10/17 13:01:12;;;;;;;5.40;1.60;;;16.80;95.70;;;;;;5036027;28;19913;-55
2023/10/17 13:03:38;;;;;;;3.10;1.73;;;17.70;95.00;;;;;;5036283;28;20040;-52
2023/10/17 13:06:11;;;;;;;2.75;1.52;;;18.70;92.10;;;;;;5046151;28;20038;-51
2023/10/17 13:08:36;;;;;;;2.05;1.33;;;19.00;92.00;;;;;;5044262;28;20320;-53
2023/10/17 13:11:02;;;;;;;2.17;1.30;;;19.20;92.30;;;;;;5043562;28;20036;-52
2023/10/17 13:13:30;;;;;;;3.45;1.88;;;19.90;90.80;;;;;;5026588;28;20437;-53
2023/10/17 13:15:57;;;;;;;5.30;1.60;;;20.50;89.60;;;;;;5046335;28;20057;-53
2023/10/17 13:18:24;;;;;;;2.92;1.40;;;20.50;88.30;;;;;;5045951;28;20049;-52
2023/10/17 13:20:53;;;;;;;2.28;1.50;;;20.60;87.70;;;;;;5045980;28;20394;-54
2023/10/17 13:23:20;;;;;;;2.55;1.50;;;21.40;85.40;;;;;;5044462;28;20033;-51
2023/10/17 13:25:46;;;;;;;1.88;1.30;;;22.20;83.80;;;;;;5044532;28;20168;-53
2023/10/17 13:28:12;;;;;;;2.90;1.75;;;22.80;81.00;;;;;;5045162;28;20037;-52
2023/10/17 13:30:38;;;;;;;3.20;1.52;;;23.10;80.00;;;;;;5026591;28;20443;-53
2023/10/17 13:33:06;;;;;;;3.75;1.67;;;23.40;78.40;;;;;;5042456;28;20112;-51
2023/10/17 13:35:37;;;;;;;3.65;2.03;;;23.70;75.60;;;;;;5042919;28;20034;-52
2023/10/17 13:38:03;;;;;;;4.30;1.67;;;23.70;75.40;;;;;;5041880;28;20461;-53
2023/10/17 13:40:32;;;;;;;4.90;1.70;;;22.70;77.50;;;;;;5041531;28;20457;-53
2023/10/17 13:43:00;;;;;;;3.13;1.50;;;22.60;77.70;;;;;;5041732;28;20504;-53
2023/10/17 13:45:27;;;;;;;5.53;1.60;;;22.80;77.50;;;;;;5040760;28;20040;-53
2023/10/17 13:47:53;;;;;;;2.47;1.30;;;22.80;77.10;;;;;;5035523;28;20044;-54
2023/10/17 13:50:19;;;;;;;2.42;1.55;;;22.10;78.60;;;;;;5032881;28;20374;-51
2023/10/17 13:53:06;;;;;;;3.55;1.73;;;21.10;81.00;;;;;;5033197;28;20029;-54
2023/10/17 13:55:35;;;;;;;3.13;1.65;;;19.80;83.10;;;;;;5032934;28;20093;-54
2023/10/17 13:58:04;;;;;;;4.38;1.90;;;18.60;86.90;;;;;;5032844;28;20463;-50
2023/10/17 14:00:51;;;;;;;3.25;1.80;;;17.80;90.10;;;;;;5033091;28;20458;-53
2023/10/17 14:03:17;;;;;;;5.55;1.65;;;16.90;92.40;;;;;;5032689;28;20029;-54
2023/10/17 14:05:47;;;;;;;3.70;1.92;;;16.30;93.40;;;;;;5032828;28;20053;-54
2023/10/17 14:08:13;;;;;;;3.53;2.00;;;15.90;94.60;;;;;;5032657;28;20301;-51
2023/10/17 14:10:43;;;;;;;4.95;2.30;;;15.50;95.80;;;;;;5014907;28;20088;-50
2023/10/17 14:13:12;;;;;;;2.38;1.50;;;15.20;96.80;;;;;;5032207;28;20372;-54
2023/10/17 14:15:38;;;;;;;3.00;1.60;;;15.10;97.40;;;;;;5033251;28;20032;-53
2023/10/17 14:18:13;;;;;;;3.58;1.50;;;15.10;97.20;;;;;;5032466;28;20455;-55
2023/10/17 14:20:53;;;;;;;4.30;2.10;;;15.00;97.90;;;;;;5032394;28;20367;-55
2023/10/17 14:23:26;;;;;;;2.67;1.38;;;14.90;98.30;;;;;;5014266;28;20029;-55
2023/10/17 14:26:07;;;;;;;2.33;1.60;;;14.80;99.00;;;;;;5032390;28;20505;-55
2023/10/17 14:28:39;;;;;;;3.42;1.88;;;14.70;99.20;;;;;;5031421;28;20038;-53
2023/10/17 14:31:09;;;;;;;4.72;1.90;;;14.60;99.90;;;;;;5032158;28;20033;-52
2023/10/17 14:33:35;;;;;;;5.60;2.20;;;14.40;99.90;;;;;;5031998;28;20029;-55
2023/10/17 14:36:05;;;;;;;6.78;1.90;;;14.40;99.90;;;;;;5028283;28;20040;-55
2023/10/17 14:38:32;;;;;;;3.60;1.90;;;14.30;99.90;;;;;;5028445;28;20030;-55
2023/10/17 14:40:58;;;;;;;3.55;1.70;;;14.20;99.90;;;;;;5029403;28;20033;-55
2023/10/17 14:43:27;;;;;;;3.92;1.90;;;14.10;99.90;;;;;;5027779;28;20040;-53
2023/10/17 14:45:55;;;;;;;3.83;1.85;;;14.00;99.90;;;;;;5029438;28;20512;-53
2023/10/17 14:48:21;;;;;;;3.97;1.98;;;13.90;99.90;;;;;;5028539;28;20037;-52
2023/10/17 14:50:48;;;;;;;4.28;2.00;;;13.80;99.90;;;;;;5030398;28;20033;-55
2023/10/17 14:53:19;;;;;;;4.15;1.90;;;13.70;99.90;;;;;;5027706;28;20030;-53
2023/10/17 14:55:56;;;;;;;3.67;2.00;;;13.60;99.90;;;;;;5027928;28;20034;-55
2023/10/17 14:58:21;;;;;;;4.47;1.90;;;13.60;99.90;;;;;;5028276;28;20125;-53
2023/10/17 15:00:53;;;;;;;5.07;1.80;;;13.60;99.90;;;;;;5029370;28;20529;-54
2023/10/17 15:03:20;;;;;;;3.55;2.05;;;13.50;99.90;;;;;;5028852;28;20030;-53
2023/10/17 15:05:45;;;;;;;4.97;2.22;;;13.60;99.90;;;;;;5029651;28;20469;-53
2023/10/17 15:08:11;;;;;;;5.65;1.63;;;13.60;99.90;;;;;;5027715;28;20037;-54
2023/10/17 15:10:40;;;;;;;4.53;2.03;;;13.50;99.90;;;;;;5029551;28;20512;-51
2023/10/17 15:13:08;;;;;;;4.50;1.85;;;13.50;99.90;;;;;;5027914;28;20033;-50
2023/10/17 15:15:34;;;;;;;4.63;1.80;;;13.40;99.90;;;;;;5041344;28;20037;-53
2023/10/17 15:18:00;;;;;;;3.55;1.85;;;13.40;99.90;;;;;;5048657;28;20063;-50
2023/10/17 15:20:26;;;;;;;3.53;2.00;;;13.30;99.90;;;;;;5028093;28;20076;-54
2023/10/17 15:22:52;;;;;;;3.42;1.85;;;13.30;99.90;;;;;;5027892;28;20132;-52